sensor_id;sensor_type;location;lat;lon;timestamp;P1;durP1;ratioP1;P2;durP2;ratioP2
8254;SDS011;4167;48.162;11.542;2024-01-30T00:01:02;10.55;;;4.50;;
8254;SDS011;4167;48.162;11.542;2024-01-30T00:03:29;9.57;;;4.93;;
8254;SDS011;4167;48.162;11.542;2024-01-30T00:05:55;11.27;;;4.93;;
8254;SDS011;4167;48.162;11.542;2024-01-30T00:08:22;11.32;;;4.97;;
8254;SDS011;4167;48.162;11.542;2024-01-30T00:10:48;6.78;;;4.35;;
8254;SDS011;4167;48.162;11.542;2024-01-30T00:13:15;7.47;;;3.58;;
8254;SDS011;4167;48.162;11.542;2024-01-30T00:15:44;10.88;;;4.35;;
8254;SDS011;4167;48.162;11.542;2024-01-30T00:18:12;8.20;;;4.60;;
8254;SDS011;4167;48.162;11.542;2024-01-30T00:20:38;10.25;;;4.40;;
8254;SDS011;4167;48.162;11.542;2024-01-30T00:23:05;8.73;;;4.28;;
8254;SDS011;4167;48.162;11.542;2024-01-30T00:25:30;9.30;;;3.92;;
8254;SDS011;4167;48.162;11.542;2024-01-30T00:27:58;7.50;;;3.90;;
8254;SDS011;4167;48.162;11.542;2024-01-30T00:30:24;9.70;;;4.65;;
8254;SDS011;4167;48.162;11.542;2024-01-30T00:32:51;10.07;;;4.30;;
8254;SDS011;4167;48.162;11.542;2024-01-30T00:35:19;7.30;;;3.88;;
8254;SDS011;4167;48.162;11.542;2024-01-30T00:37:47;6.53;;;3.97;;
8254;SDS011;4167;48.162;11.542;2024-01-30T00:40:13;7.82;;;4.45;;
8254;SDS011;4167;48.162;11.542;2024-01-30T00:42:40;7.65;;;4.72;;
8254;SDS011;4167;48.162;11.542;2024-01-30T00:45:11;7.45;;;4.38;;
8254;SDS011;4167;48.162;11.542;2024-01-30T00:47:38;7.20;;;4.38;;
8254;SDS011;4167;48.162;11.542;2024-01-30T00:50:05;7.20;;;3.97;;
8254;SDS011;4167;48.162;11.542;2024-01-30T00:52:33;7.35;;;4.15;;
8254;SDS011;4167;48.162;11.542;2024-01-30T00:55:00;7.60;;;4.28;;
8254;SDS011;4167;48.162;11.542;2024-01-30T00:57:27;8.40;;;5.70;;
8254;SDS011;4167;48.162;11.542;2024-01-30T00:59:54;9.13;;;5.28;;
8254;SDS011;4167;48.162;11.542;2024-01-30T01:02:20;10.60;;;4.68;;
8254;SDS011;4167;48.162;11.542;2024-01-30T01:04:47;10.85;;;4.43;;
8254;SDS011;4167;48.162;11.542;2024-01-30T01:07:13;9.85;;;3.95;;
8254;SDS011;4167;48.162;11.542;2024-01-30T01:09:41;8.85;;;4.90;;
8254;SDS011;4167;48.162;11.542;2024-01-30T01:14:34;6.03;;;3.67;;
8254;SDS011;4167;48.162;11.542;2024-01-30T01:17:01;7.07;;;3.90;;
8254;SDS011;4167;48.162;11.542;2024-01-30T01:19:28;11.35;;;4.20;;
8254;SDS011;4167;48.162;11.542;2024-01-30T01:21:54;8.75;;;4.88;;
8254;SDS011;4167;48.162;11.542;2024-01-30T01:24:24;6.47;;;3.70;;
8254;SDS011;4167;48.162;11.542;2024-01-30T01:26:52;6.78;;;3.55;;
8254;SDS011;4167;48.162;11.542;2024-01-30T01:29:18;7.03;;;4.30;;
8254;SDS011;4167;48.162;11.542;2024-01-30T01:31:45;9.77;;;4.43;;
8254;SDS011;4167;48.162;11.542;2024-01-30T01:34:12;9.07;;;4.13;;
8254;SDS011;4167;48.162;11.542;2024-01-30T01:36:39;7.78;;;4.95;;
8254;SDS011;4167;48.162;11.542;2024-01-30T01:39:05;8.05;;;4.32;;
8254;SDS011;4167;48.162;11.542;2024-01-30T01:41:33;7.78;;;4.53;;
8254;SDS011;4167;48.162;11.542;2024-01-30T01:44:01;5.78;;;3.53;;
8254;SDS011;4167;48.162;11.542;2024-01-30T01:46:27;7.57;;;4.55;;
8254;SDS011;4167;48.162;11.542;2024-01-30T01:48:56;6.43;;;4.28;;
8254;SDS011;4167;48.162;11.542;2024-01-30T01:51:23;8.25;;;4.55;;
8254;SDS011;4167;48.162;11.542;2024-01-30T01:53:51;7.55;;;3.75;;
8254;SDS011;4167;48.162;11.542;2024-01-30T01:56:17;8.57;;;4.47;;
8254;SDS011;4167;48.162;11.542;2024-01-30T01:58:44;6.60;;;3.80;;
8254;SDS011;4167;48.162;11.542;2024-01-30T02:01:12;7.22;;;4.45;;
8254;SDS011;4167;48.162;11.542;2024-01-30T02:03:39;6.97;;;4.65;;
8254;SDS011;4167;48.162;11.542;2024-01-30T02:06:06;7.85;;;4.40;;
8254;SDS011;4167;48.162;11.542;2024-01-30T02:08:32;8.20;;;3.45;;
8254;SDS011;4167;48.162;11.542;2024-01-30T02:10:59;7.60;;;3.38;;
8254;SDS011;4167;48.162;11.542;2024-01-30T02:13:25;7.05;;;3.53;;
8254;SDS011;4167;48.162;11.542;2024-01-30T02:15:52;8.80;;;4.28;;
8254;SDS011;4167;48.162;11.542;2024-01-30T02:18:20;7.32;;;3.95;;
8254;SDS011;4167;48.162;11.542;2024-01-30T02:20:47;8.38;;;4.20;;
8254;SDS011;4167;48.162;11.542;2024-01-30T02:23:15;8.30;;;3.85;;
8254;SDS011;4167;48.162;11.542;2024-01-30T02:25:42;6.30;;;3.85;;
8254;SDS011;4167;48.162;11.542;2024-01-30T02:28:10;9.00;;;4.20;;
8254;SDS011;4167;48.162;11.542;2024-01-30T02:30:37;6.75;;;3.70;;
8254;SDS011;4167;48.162;11.542;2024-01-30T02:33:04;5.97;;;3.60;;
8254;SDS011;4167;48.162;11.542;2024-01-30T02:35:30;6.53;;;3.78;;
8254;SDS011;4167;48.162;11.542;2024-01-30T02:37:57;9.18;;;4.72;;
8254;SDS011;4167;48.162;11.542;2024-01-30T02:40:25;9.00;;;3.67;;
8254;SDS011;4167;48.162;11.542;2024-01-30T02:42:51;5.68;;;3.97;;
8254;SDS011;4167;48.162;11.542;2024-01-30T02:45:18;5.97;;;4.00;;
8254;SDS011;4167;48.162;11.542;2024-01-30T02:47:45;7.15;;;3.90;;
8254;SDS011;4167;48.162;11.542;2024-01-30T02:50:11;6.78;;;3.58;;
8254;SDS011;4167;48.162;11.542;2024-01-30T02:52:40;5.60;;;4.10;;
8254;SDS011;4167;48.162;11.542;2024-01-30T02:55:08;7.85;;;3.83;;
8254;SDS011;4167;48.162;11.542;2024-01-30T02:57:36;4.00;;;2.55;;
8254;SDS011;4167;48.162;11.542;2024-01-30T03:02:31;6.97;;;4.10;;
8254;SDS011;4167;48.162;11.542;2024-01-30T03:04:58;3.72;;;3.00;;
8254;SDS011;4167;48.162;11.542;2024-01-30T03:07:24;9.60;;;3.65;;
8254;SDS011;4167;48.162;11.542;2024-01-30T03:09:51;5.53;;;3.17;;
8254;SDS011;4167;48.162;11.542;2024-01-30T03:12:17;6.30;;;3.10;;
8254;SDS011;4167;48.162;11.542;2024-01-30T03:17:14;5.03;;;2.88;;
8254;SDS011;4167;48.162;11.542;2024-01-30T03:19:40;7.85;;;3.72;;
8254;SDS011;4167;48.162;11.542;2024-01-30T03:22:07;5.97;;;3.25;;
8254;SDS011;4167;48.162;11.542;2024-01-30T03:24:33;10.02;;;3.30;;
8254;SDS011;4167;48.162;11.542;2024-01-30T03:27:00;7.63;;;4.10;;
8254;SDS011;4167;48.162;11.542;2024-01-30T03:29:27;6.05;;;2.80;;
8254;SDS011;4167;48.162;11.542;2024-01-30T03:31:55;5.90;;;3.55;;
8254;SDS011;4167;48.162;11.542;2024-01-30T03:36:48;4.60;;;2.95;;
8254;SDS011;4167;48.162;11.542;2024-01-30T03:39:14;6.68;;;3.83;;
8254;SDS011;4167;48.162;11.542;2024-01-30T03:41:41;6.32;;;3.63;;
8254;SDS011;4167;48.162;11.542;2024-01-30T03:44:08;5.88;;;3.47;;
8254;SDS011;4167;48.162;11.542;2024-01-30T03:46:34;7.18;;;3.75;;
8254;SDS011;4167;48.162;11.542;2024-01-30T03:49:02;5.13;;;3.20;;
8254;SDS011;4167;48.162;11.542;2024-01-30T03:51:29;6.03;;;3.20;;
8254;SDS011;4167;48.162;11.542;2024-01-30T03:53:55;8.57;;;3.42;;
8254;SDS011;4167;48.162;11.542;2024-01-30T03:56:22;6.35;;;3.60;;
8254;SDS011;4167;48.162;11.542;2024-01-30T03:58:50;5.88;;;3.70;;
8254;SDS011;4167;48.162;11.542;2024-01-30T04:01:17;4.82;;;3.00;;
8254;SDS011;4167;48.162;11.542;2024-01-30T04:03:44;5.30;;;2.78;;
8254;SDS011;4167;48.162;11.542;2024-01-30T04:06:12;6.63;;;3.00;;
8254;SDS011;4167;48.162;11.542;2024-01-30T04:11:05;5.40;;;3.55;;
8254;SDS011;4167;48.162;11.542;2024-01-30T04:13:31;5.38;;;3.15;;
8254;SDS011;4167;48.162;11.542;2024-01-30T04:15:58;5.35;;;2.97;;
8254;SDS011;4167;48.162;11.542;2024-01-30T04:18:25;6.45;;;3.13;;
8254;SDS011;4167;48.162;11.542;2024-01-30T04:20:51;7.32;;;4.05;;
8254;SDS011;4167;48.162;11.542;2024-01-30T04:23:19;5.18;;;3.67;;
8254;SDS011;4167;48.162;11.542;2024-01-30T04:28:12;11.35;;;3.90;;
8254;SDS011;4167;48.162;11.542;2024-01-30T04:30:39;10.95;;;3.38;;
8254;SDS011;4167;48.162;11.542;2024-01-30T04:33:05;25.45;;;5.50;;
8254;SDS011;4167;48.162;11.542;2024-01-30T04:35:32;11.60;;;4.25;;
8254;SDS011;4167;48.162;11.542;2024-01-30T04:37:58;9.43;;;3.40;;
8254;SDS011;4167;48.162;11.542;2024-01-30T04:40:26;6.13;;;3.65;;
8254;SDS011;4167;48.162;11.542;2024-01-30T04:42:53;15.13;;;4.53;;
8254;SDS011;4167;48.162;11.542;2024-01-30T04:45:19;12.57;;;4.55;;
8254;SDS011;4167;48.162;11.542;2024-01-30T04:47:45;21.17;;;6.25;;
8254;SDS011;4167;48.162;11.542;2024-01-30T04:50:13;14.75;;;4.45;;
8254;SDS011;4167;48.162;11.542;2024-01-30T04:52:39;12.05;;;4.78;;
8254;SDS011;4167;48.162;11.542;2024-01-30T04:55:06;6.32;;;2.75;;
8254;SDS011;4167;48.162;11.542;2024-01-30T04:57:37;10.52;;;3.72;;
8254;SDS011;4167;48.162;11.542;2024-01-30T05:02:31;7.65;;;3.47;;
8254;SDS011;4167;48.162;11.542;2024-01-30T05:04:57;4.25;;;2.63;;
8254;SDS011;4167;48.162;11.542;2024-01-30T05:07:24;10.35;;;4.07;;
8254;SDS011;4167;48.162;11.542;2024-01-30T05:09:50;4.70;;;2.92;;
8254;SDS011;4167;48.162;11.542;2024-01-30T05:12:17;12.32;;;3.60;;
8254;SDS011;4167;48.162;11.542;2024-01-30T05:14:45;18.58;;;4.70;;
8254;SDS011;4167;48.162;11.542;2024-01-30T05:17:11;10.65;;;4.10;;
8254;SDS011;4167;48.162;11.542;2024-01-30T05:19:38;12.18;;;3.97;;
8254;SDS011;4167;48.162;11.542;2024-01-30T05:22:05;10.23;;;3.53;;
8254;SDS011;4167;48.162;11.542;2024-01-30T05:24:32;8.65;;;3.88;;
8254;SDS011;4167;48.162;11.542;2024-01-30T05:26:59;8.45;;;3.85;;
8254;SDS011;4167;48.162;11.542;2024-01-30T05:29:26;11.50;;;3.65;;
8254;SDS011;4167;48.162;11.542;2024-01-30T05:31:54;10.75;;;3.95;;
8254;SDS011;4167;48.162;11.542;2024-01-30T05:36:47;5.95;;;3.25;;
8254;SDS011;4167;48.162;11.542;2024-01-30T05:39:13;8.25;;;3.80;;
8254;SDS011;4167;48.162;11.542;2024-01-30T05:41:40;8.38;;;4.47;;
8254;SDS011;4167;48.162;11.542;2024-01-30T05:44:07;11.13;;;4.40;;
8254;SDS011;4167;48.162;11.542;2024-01-30T05:46:35;8.77;;;4.15;;
8254;SDS011;4167;48.162;11.542;2024-01-30T05:49:03;5.55;;;3.63;;
8254;SDS011;4167;48.162;11.542;2024-01-30T05:51:29;9.25;;;4.43;;
8254;SDS011;4167;48.162;11.542;2024-01-30T05:53:56;8.07;;;4.25;;
8254;SDS011;4167;48.162;11.542;2024-01-30T05:56:22;13.43;;;4.35;;
8254;SDS011;4167;48.162;11.542;2024-01-30T05:58:49;7.38;;;4.15;;
8254;SDS011;4167;48.162;11.542;2024-01-30T06:01:16;6.35;;;3.78;;
8254;SDS011;4167;48.162;11.542;2024-01-30T06:03:42;9.77;;;3.55;;
8254;SDS011;4167;48.162;11.542;2024-01-30T06:06:10;10.20;;;3.60;;
8254;SDS011;4167;48.162;11.542;2024-01-30T06:11:03;6.05;;;3.10;;
8254;SDS011;4167;48.162;11.542;2024-01-30T06:13:30;5.35;;;2.88;;
8254;SDS011;4167;48.162;11.542;2024-01-30T06:15:57;6.47;;;3.80;;
8254;SDS011;4167;48.162;11.542;2024-01-30T06:18:23;8.00;;;4.15;;
8254;SDS011;4167;48.162;11.542;2024-01-30T06:20:51;8.02;;;3.50;;
8254;SDS011;4167;48.162;11.542;2024-01-30T06:23:19;11.68;;;3.65;;
8254;SDS011;4167;48.162;11.542;2024-01-30T06:25:46;9.07;;;4.25;;
8254;SDS011;4167;48.162;11.542;2024-01-30T06:28:12;9.57;;;3.67;;
8254;SDS011;4167;48.162;11.542;2024-01-30T06:30:39;9.15;;;4.72;;
8254;SDS011;4167;48.162;11.542;2024-01-30T06:33:05;6.65;;;3.63;;
8254;SDS011;4167;48.162;11.542;2024-01-30T06:38:20;9.55;;;3.58;;
8254;SDS011;4167;48.162;11.542;2024-01-30T06:40:46;7.25;;;3.28;;
8254;SDS011;4167;48.162;11.542;2024-01-30T06:43:13;5.72;;;3.60;;
8254;SDS011;4167;48.162;11.542;2024-01-30T06:45:40;9.43;;;4.00;;
8254;SDS011;4167;48.162;11.542;2024-01-30T06:48:08;10.10;;;3.72;;
8254;SDS011;4167;48.162;11.542;2024-01-30T06:50:34;7.20;;;2.92;;
8254;SDS011;4167;48.162;11.542;2024-01-30T06:53:01;13.85;;;4.65;;
8254;SDS011;4167;48.162;11.542;2024-01-30T06:55:29;16.73;;;5.13;;
8254;SDS011;4167;48.162;11.542;2024-01-30T06:57:55;9.32;;;4.13;;
8254;SDS011;4167;48.162;11.542;2024-01-30T07:00:22;11.32;;;4.03;;
8254;SDS011;4167;48.162;11.542;2024-01-30T07:02:48;12.40;;;4.22;;
8254;SDS011;4167;48.162;11.542;2024-01-30T07:05:15;6.72;;;4.00;;
8254;SDS011;4167;48.162;11.542;2024-01-30T07:07:42;10.45;;;4.35;;
8254;SDS011;4167;48.162;11.542;2024-01-30T07:10:09;7.57;;;4.32;;
8254;SDS011;4167;48.162;11.542;2024-01-30T07:12:36;13.27;;;4.85;;
8254;SDS011;4167;48.162;11.542;2024-01-30T07:15:03;9.90;;;4.70;;
8254;SDS011;4167;48.162;11.542;2024-01-30T07:17:33;12.88;;;5.55;;
8254;SDS011;4167;48.162;11.542;2024-01-30T07:19:59;15.27;;;5.13;;
8254;SDS011;4167;48.162;11.542;2024-01-30T07:22:26;11.82;;;4.30;;
8254;SDS011;4167;48.162;11.542;2024-01-30T07:24:52;14.02;;;5.15;;
8254;SDS011;4167;48.162;11.542;2024-01-30T07:27:19;13.02;;;5.18;;
8254;SDS011;4167;48.162;11.542;2024-01-30T07:32:14;9.27;;;3.13;;
8254;SDS011;4167;48.162;11.542;2024-01-30T07:34:41;9.60;;;3.58;;
8254;SDS011;4167;48.162;11.542;2024-01-30T07:37:07;9.10;;;3.88;;
8254;SDS011;4167;48.162;11.542;2024-01-30T07:39:34;18.23;;;6.03;;
8254;SDS011;4167;48.162;11.542;2024-01-30T07:42:02;8.30;;;3.95;;
8254;SDS011;4167;48.162;11.542;2024-01-30T07:44:28;11.07;;;4.32;;
8254;SDS011;4167;48.162;11.542;2024-01-30T07:46:56;10.15;;;3.40;;
8254;SDS011;4167;48.162;11.542;2024-01-30T07:49:23;14.02;;;4.70;;
8254;SDS011;4167;48.162;11.542;2024-01-30T07:51:50;7.35;;;4.13;;
8254;SDS011;4167;48.162;11.542;2024-01-30T07:54:16;9.95;;;4.25;;
8254;SDS011;4167;48.162;11.542;2024-01-30T07:56:43;6.78;;;3.30;;
8254;SDS011;4167;48.162;11.542;2024-01-30T07:59:10;14.90;;;5.38;;
8254;SDS011;4167;48.162;11.542;2024-01-30T08:01:36;13.88;;;4.40;;
8254;SDS011;4167;48.162;11.542;2024-01-30T08:04:04;9.90;;;4.18;;
8254;SDS011;4167;48.162;11.542;2024-01-30T08:06:31;11.57;;;4.07;;
8254;SDS011;4167;48.162;11.542;2024-01-30T08:08:57;12.65;;;4.22;;
8254;SDS011;4167;48.162;11.542;2024-01-30T08:11:24;10.52;;;4.57;;
8254;SDS011;4167;48.162;11.542;2024-01-30T08:13:52;11.77;;;3.50;;
8254;SDS011;4167;48.162;11.542;2024-01-30T08:16:18;14.63;;;4.20;;
8254;SDS011;4167;48.162;11.542;2024-01-30T08:18:45;10.50;;;4.05;;
8254;SDS011;4167;48.162;11.542;2024-01-30T08:21:13;10.07;;;4.78;;
8254;SDS011;4167;48.162;11.542;2024-01-30T08:26:52;13.68;;;4.97;;
8254;SDS011;4167;48.162;11.542;2024-01-30T08:29:19;14.88;;;4.68;;
8254;SDS011;4167;48.162;11.542;2024-01-30T08:31:45;10.55;;;5.07;;
8254;SDS011;4167;48.162;11.542;2024-01-30T08:34:12;7.47;;;4.00;;
8254;SDS011;4167;48.162;11.542;2024-01-30T08:36:40;13.15;;;4.32;;
8254;SDS011;4167;48.162;11.542;2024-01-30T08:39:06;9.95;;;4.15;;
8254;SDS011;4167;48.162;11.542;2024-01-30T08:41:33;5.45;;;3.15;;
8254;SDS011;4167;48.162;11.542;2024-01-30T08:43:59;8.65;;;3.92;;
8254;SDS011;4167;48.162;11.542;2024-01-30T08:46:26;6.45;;;3.42;;
8254;SDS011;4167;48.162;11.542;2024-01-30T08:48:52;12.93;;;5.55;;
8254;SDS011;4167;48.162;11.542;2024-01-30T08:51:19;9.63;;;4.80;;
8254;SDS011;4167;48.162;11.542;2024-01-30T08:53:47;9.15;;;3.60;;
8254;SDS011;4167;48.162;11.542;2024-01-30T08:56:13;14.77;;;4.50;;
8254;SDS011;4167;48.162;11.542;2024-01-30T08:58:41;14.07;;;4.25;;
8254;SDS011;4167;48.162;11.542;2024-01-30T09:01:07;9.07;;;4.13;;
8254;SDS011;4167;48.162;11.542;2024-01-30T09:03:34;10.63;;;3.80;;
8254;SDS011;4167;48.162;11.542;2024-01-30T09:06:01;8.55;;;4.22;;
8254;SDS011;4167;48.162;11.542;2024-01-30T09:08:28;9.43;;;2.83;;
8254;SDS011;4167;48.162;11.542;2024-01-30T09:10:55;12.45;;;3.72;;
8254;SDS011;4167;48.162;11.542;2024-01-30T09:13:21;6.88;;;3.30;;
8254;SDS011;4167;48.162;11.542;2024-01-30T09:15:48;9.90;;;3.35;;
8254;SDS011;4167;48.162;11.542;2024-01-30T09:18:14;11.55;;;3.67;;
8254;SDS011;4167;48.162;11.542;2024-01-30T09:20:41;11.05;;;2.92;;
8254;SDS011;4167;48.162;11.542;2024-01-30T09:23:07;4.43;;;2.63;;
8254;SDS011;4167;48.162;11.542;2024-01-30T09:25:34;10.45;;;2.95;;
8254;SDS011;4167;48.162;11.542;2024-01-30T09:28:02;5.53;;;3.08;;
8254;SDS011;4167;48.162;11.542;2024-01-30T09:30:28;5.28;;;2.45;;
8254;SDS011;4167;48.162;11.542;2024-01-30T09:32:55;7.20;;;2.72;;
8254;SDS011;4167;48.162;11.542;2024-01-30T09:35:21;7.28;;;2.97;;
8254;SDS011;4167;48.162;11.542;2024-01-30T09:37:48;8.80;;;2.97;;
8254;SDS011;4167;48.162;11.542;2024-01-30T09:40:14;13.95;;;3.28;;
8254;SDS011;4167;48.162;11.542;2024-01-30T09:42:44;7.57;;;2.70;;
8254;SDS011;4167;48.162;11.542;2024-01-30T09:45:14;7.10;;;2.78;;
8254;SDS011;4167;48.162;11.542;2024-01-30T09:47:42;6.80;;;2.92;;
8254;SDS011;4167;48.162;11.542;2024-01-30T09:50:09;4.22;;;2.47;;
8254;SDS011;4167;48.162;11.542;2024-01-30T09:52:36;6.85;;;2.92;;
8254;SDS011;4167;48.162;11.542;2024-01-30T09:55:03;6.13;;;2.97;;
8254;SDS011;4167;48.162;11.542;2024-01-30T09:57:30;5.65;;;2.88;;
8254;SDS011;4167;48.162;11.542;2024-01-30T09:59:56;7.85;;;3.20;;
8254;SDS011;4167;48.162;11.542;2024-01-30T10:02:24;6.57;;;2.80;;
8254;SDS011;4167;48.162;11.542;2024-01-30T10:04:51;9.07;;;3.45;;
8254;SDS011;4167;48.162;11.542;2024-01-30T10:07:18;4.82;;;3.08;;
8254;SDS011;4167;48.162;11.542;2024-01-30T10:12:12;7.57;;;3.30;;
8254;SDS011;4167;48.162;11.542;2024-01-30T10:14:38;11.65;;;3.10;;
8254;SDS011;4167;48.162;11.542;2024-01-30T10:17:06;10.80;;;2.92;;
8254;SDS011;4167;48.162;11.542;2024-01-30T10:19:34;5.22;;;3.08;;
8254;SDS011;4167;48.162;11.542;2024-01-30T10:22:01;7.93;;;3.35;;
8254;SDS011;4167;48.162;11.542;2024-01-30T10:24:28;14.40;;;4.50;;
8254;SDS011;4167;48.162;11.542;2024-01-30T10:26:55;6.53;;;3.00;;
8254;SDS011;4167;48.162;11.542;2024-01-30T10:29:22;6.80;;;2.40;;
8254;SDS011;4167;48.162;11.542;2024-01-30T10:31:57;9.38;;;3.08;;
8254;SDS011;4167;48.162;11.542;2024-01-30T10:34:24;6.50;;;2.85;;
8254;SDS011;4167;48.162;11.542;2024-01-30T10:36:54;6.97;;;2.47;;
8254;SDS011;4167;48.162;11.542;2024-01-30T10:39:26;4.45;;;2.42;;
8254;SDS011;4167;48.162;11.542;2024-01-30T10:41:55;7.60;;;2.60;;
8254;SDS011;4167;48.162;11.542;2024-01-30T10:44:22;6.80;;;2.05;;
8254;SDS011;4167;48.162;11.542;2024-01-30T10:46:50;6.15;;;2.85;;
8254;SDS011;4167;48.162;11.542;2024-01-30T10:49:18;4.97;;;2.30;;
8254;SDS011;4167;48.162;11.542;2024-01-30T10:51:44;5.25;;;2.05;;
8254;SDS011;4167;48.162;11.542;2024-01-30T10:54:12;5.55;;;2.72;;
8254;SDS011;4167;48.162;11.542;2024-01-30T10:56:39;3.95;;;1.85;;
8254;SDS011;4167;48.162;11.542;2024-01-30T10:59:06;9.02;;;2.10;;
8254;SDS011;4167;48.162;11.542;2024-01-30T11:01:32;5.45;;;2.40;;
8254;SDS011;4167;48.162;11.542;2024-01-30T11:03:59;5.75;;;2.50;;
8254;SDS011;4167;48.162;11.542;2024-01-30T11:06:25;4.00;;;2.22;;
8254;SDS011;4167;48.162;11.542;2024-01-30T11:09:02;6.90;;;1.60;;
8254;SDS011;4167;48.162;11.542;2024-01-30T11:11:34;8.35;;;1.85;;
8254;SDS011;4167;48.162;11.542;2024-01-30T11:14:14;4.38;;;1.52;;
8254;SDS011;4167;48.162;11.542;2024-01-30T11:16:40;3.10;;;1.60;;
8254;SDS011;4167;48.162;11.542;2024-01-30T11:19:10;2.92;;;1.55;;
8254;SDS011;4167;48.162;11.542;2024-01-30T11:21:40;5.25;;;1.98;;
8254;SDS011;4167;48.162;11.542;2024-01-30T11:24:07;2.67;;;1.30;;
8254;SDS011;4167;48.162;11.542;2024-01-30T11:26:35;3.33;;;1.60;;
8254;SDS011;4167;48.162;11.542;2024-01-30T11:29:02;4.13;;;2.10;;
8254;SDS011;4167;48.162;11.542;2024-01-30T11:31:29;2.60;;;1.40;;
8254;SDS011;4167;48.162;11.542;2024-01-30T11:33:56;3.42;;;1.55;;
8254;SDS011;4167;48.162;11.542;2024-01-30T11:36:24;4.55;;;1.90;;
8254;SDS011;4167;48.162;11.542;2024-01-30T11:38:52;9.20;;;2.40;;
8254;SDS011;4167;48.162;11.542;2024-01-30T11:41:18;3.60;;;1.60;;
8254;SDS011;4167;48.162;11.542;2024-01-30T11:43:52;6.25;;;1.77;;
8254;SDS011;4167;48.162;11.542;2024-01-30T11:46:18;3.95;;;1.73;;
8254;SDS011;4167;48.162;11.542;2024-01-30T11:48:45;6.05;;;2.63;;
8254;SDS011;4167;48.162;11.542;2024-01-30T11:51:12;3.38;;;1.90;;
8254;SDS011;4167;48.162;11.542;2024-01-30T11:53:39;5.28;;;2.88;;
8254;SDS011;4167;48.162;11.542;2024-01-30T11:56:05;5.50;;;2.28;;
8254;SDS011;4167;48.162;11.542;2024-01-30T11:58:33;3.00;;;1.75;;
8254;SDS011;4167;48.162;11.542;2024-01-30T12:01:00;5.70;;;2.28;;
8254;SDS011;4167;48.162;11.542;2024-01-30T12:03:27;10.90;;;3.60;;
8254;SDS011;4167;48.162;11.542;2024-01-30T12:05:56;6.00;;;2.22;;
8254;SDS011;4167;48.162;11.542;2024-01-30T12:08:23;7.05;;;2.35;;
8254;SDS011;4167;48.162;11.542;2024-01-30T12:10:55;4.53;;;2.17;;
8254;SDS011;4167;48.162;11.542;2024-01-30T12:13:22;14.13;;;2.95;;
8254;SDS011;4167;48.162;11.542;2024-01-30T12:15:48;8.43;;;2.60;;
8254;SDS011;4167;48.162;11.542;2024-01-30T12:18:19;6.35;;;1.83;;
8254;SDS011;4167;48.162;11.542;2024-01-30T12:20:48;3.20;;;1.45;;
8254;SDS011;4167;48.162;11.542;2024-01-30T12:23:23;4.13;;;2.55;;
8254;SDS011;4167;48.162;11.542;2024-01-30T12:25:50;5.07;;;2.03;;
8254;SDS011;4167;48.162;11.542;2024-01-30T12:28:17;4.82;;;2.10;;
8254;SDS011;4167;48.162;11.542;2024-01-30T12:30:44;5.60;;;2.00;;
8254;SDS011;4167;48.162;11.542;2024-01-30T12:33:15;7.65;;;2.10;;
8254;SDS011;4167;48.162;11.542;2024-01-30T12:35:46;5.03;;;2.10;;
8254;SDS011;4167;48.162;11.542;2024-01-30T12:38:13;4.05;;;2.00;;
8254;SDS011;4167;48.162;11.542;2024-01-30T12:40:39;4.47;;;2.10;;
8254;SDS011;4167;48.162;11.542;2024-01-30T12:43:06;4.72;;;2.20;;
8254;SDS011;4167;48.162;11.542;2024-01-30T12:45:33;5.30;;;1.77;;
8254;SDS011;4167;48.162;11.542;2024-01-30T12:47:59;9.18;;;1.98;;
8254;SDS011;4167;48.162;11.542;2024-01-30T12:50:26;3.30;;;1.70;;
8254;SDS011;4167;48.162;11.542;2024-01-30T12:52:53;5.63;;;1.98;;
8254;SDS011;4167;48.162;11.542;2024-01-30T12:55:21;5.13;;;2.00;;
8254;SDS011;4167;48.162;11.542;2024-01-30T12:57:47;4.28;;;1.90;;
8254;SDS011;4167;48.162;11.542;2024-01-30T13:00:14;6.28;;;2.20;;
8254;SDS011;4167;48.162;11.542;2024-01-30T13:02:41;8.32;;;2.33;;
8254;SDS011;4167;48.162;11.542;2024-01-30T13:05:09;8.15;;;1.85;;
8254;SDS011;4167;48.162;11.542;2024-01-30T13:07:36;6.55;;;1.98;;
8254;SDS011;4167;48.162;11.542;2024-01-30T13:10:04;6.60;;;1.73;;
8254;SDS011;4167;48.162;11.542;2024-01-30T13:12:31;4.72;;;1.63;;
8254;SDS011;4167;48.162;11.542;2024-01-30T13:14:58;3.78;;;1.98;;
8254;SDS011;4167;48.162;11.542;2024-01-30T13:17:26;5.75;;;2.10;;
8254;SDS011;4167;48.162;11.542;2024-01-30T13:19:52;8.13;;;1.55;;
8254;SDS011;4167;48.162;11.542;2024-01-30T13:22:19;8.77;;;2.38;;
8254;SDS011;4167;48.162;11.542;2024-01-30T13:24:46;6.65;;;2.08;;
8254;SDS011;4167;48.162;11.542;2024-01-30T13:27:14;4.65;;;1.83;;
8254;SDS011;4167;48.162;11.542;2024-01-30T13:29:40;2.58;;;1.50;;
8254;SDS011;4167;48.162;11.542;2024-01-30T13:32:07;2.97;;;1.58;;
8254;SDS011;4167;48.162;11.542;2024-01-30T13:34:33;3.25;;;1.33;;
8254;SDS011;4167;48.162;11.542;2024-01-30T13:37:00;4.57;;;1.83;;
8254;SDS011;4167;48.162;11.542;2024-01-30T13:39:26;4.82;;;1.48;;
8254;SDS011;4167;48.162;11.542;2024-01-30T13:41:54;5.28;;;1.60;;
8254;SDS011;4167;48.162;11.542;2024-01-30T13:44:22;3.78;;;1.60;;
8254;SDS011;4167;48.162;11.542;2024-01-30T13:46:48;4.55;;;1.40;;
8254;SDS011;4167;48.162;11.542;2024-01-30T13:49:15;4.38;;;1.92;;
8254;SDS011;4167;48.162;11.542;2024-01-30T13:51:41;3.75;;;1.20;;
8254;SDS011;4167;48.162;11.542;2024-01-30T13:54:08;9.48;;;1.83;;
8254;SDS011;4167;48.162;11.542;2024-01-30T13:56:34;3.72;;;1.67;;
8254;SDS011;4167;48.162;11.542;2024-01-30T13:59:01;5.80;;;2.15;;
8254;SDS011;4167;48.162;11.542;2024-01-30T14:01:31;3.80;;;1.50;;
8254;SDS011;4167;48.162;11.542;2024-01-30T14:03:57;4.88;;;1.55;;
8254;SDS011;4167;48.162;11.542;2024-01-30T14:06:24;3.53;;;2.33;;
8254;SDS011;4167;48.162;11.542;2024-01-30T14:08:50;4.72;;;1.50;;
8254;SDS011;4167;48.162;11.542;2024-01-30T14:11:17;6.10;;;1.75;;
8254;SDS011;4167;48.162;11.542;2024-01-30T14:13:43;4.72;;;2.00;;
8254;SDS011;4167;48.162;11.542;2024-01-30T14:16:10;6.28;;;1.83;;
8254;SDS011;4167;48.162;11.542;2024-01-30T14:18:38;3.83;;;1.40;;
8254;SDS011;4167;48.162;11.542;2024-01-30T14:21:06;5.72;;;2.72;;
8254;SDS011;4167;48.162;11.542;2024-01-30T14:23:33;3.97;;;2.45;;
8254;SDS011;4167;48.162;11.542;2024-01-30T14:25:59;5.72;;;1.92;;
8254;SDS011;4167;48.162;11.542;2024-01-30T14:28:26;3.75;;;2.20;;
8254;SDS011;4167;48.162;11.542;2024-01-30T14:30:52;5.40;;;2.25;;
8254;SDS011;4167;48.162;11.542;2024-01-30T14:33:19;4.75;;;1.90;;
8254;SDS011;4167;48.162;11.542;2024-01-30T14:35:47;4.97;;;1.83;;
8254;SDS011;4167;48.162;11.542;2024-01-30T14:38:13;5.40;;;2.10;;
8254;SDS011;4167;48.162;11.542;2024-01-30T14:40:41;6.07;;;2.20;;
8254;SDS011;4167;48.162;11.542;2024-01-30T14:43:07;4.95;;;1.90;;
8254;SDS011;4167;48.162;11.542;2024-01-30T14:45:34;4.15;;;1.83;;
8254;SDS011;4167;48.162;11.542;2024-01-30T14:48:00;9.52;;;1.88;;
8254;SDS011;4167;48.162;11.542;2024-01-30T14:50:27;3.38;;;1.52;;
8254;SDS011;4167;48.162;11.542;2024-01-30T14:52:55;4.47;;;1.70;;
8254;SDS011;4167;48.162;11.542;2024-01-30T14:55:22;12.20;;;2.38;;
8254;SDS011;4167;48.162;11.542;2024-01-30T14:57:49;5.57;;;1.85;;
8254;SDS011;4167;48.162;11.542;2024-01-30T15:00:15;2.72;;;1.60;;
8254;SDS011;4167;48.162;11.542;2024-01-30T15:02:43;4.97;;;2.35;;
8254;SDS011;4167;48.162;11.542;2024-01-30T15:05:11;5.47;;;2.25;;
8254;SDS011;4167;48.162;11.542;2024-01-30T15:07:37;8.35;;;2.33;;
8254;SDS011;4167;48.162;11.542;2024-01-30T15:10:06;7.88;;;2.20;;
8254;SDS011;4167;48.162;11.542;2024-01-30T15:12:33;6.65;;;3.80;;
8254;SDS011;4167;48.162;11.542;2024-01-30T15:14:59;5.22;;;2.40;;
8254;SDS011;4167;48.162;11.542;2024-01-30T15:17:26;6.45;;;2.35;;
8254;SDS011;4167;48.162;11.542;2024-01-30T15:19:52;4.82;;;1.98;;
8254;SDS011;4167;48.162;11.542;2024-01-30T15:22:19;6.03;;;2.50;;
8254;SDS011;4167;48.162;11.542;2024-01-30T15:24:45;5.53;;;2.05;;
8254;SDS011;4167;48.162;11.542;2024-01-30T15:27:13;9.63;;;2.85;;
8254;SDS011;4167;48.162;11.542;2024-01-30T15:29:40;6.85;;;2.50;;